createdAt,value
2024-02-02T00:00:17.184Z,96420.00
2024-02-02T00:01:17.234Z,96420.00
2024-02-02T00:02:17.275Z,96419.00
2024-02-02T00:03:17.697Z,96417.00
2024-02-02T00:04:17.413Z,96417.00
2024-02-02T00:05:18.008Z,96412.00
2024-02-02T00:06:17.663Z,96410.00
2024-02-02T00:07:17.633Z,96412.00
2024-02-02T00:08:17.656Z,96409.00
2024-02-02T00:09:17.775Z,96409.00
2024-02-02T00:10:17.808Z,96409.00
2024-02-02T00:11:17.858Z,96408.00
2024-02-02T00:12:17.943Z,96407.00
2024-02-02T00:13:17.968Z,96405.00
2024-02-02T00:14:18.041Z,96405.00
2024-02-02T00:15:18.172Z,96406.00
2024-02-02T00:16:18.188Z,96405.00
2024-02-02T00:17:18.282Z,96409.00
2024-02-02T00:18:18.681Z,96409.00
2024-02-02T00:19:18.517Z,96411.00
2024-02-02T00:20:18.512Z,96411.00
2024-02-02T00:21:18.513Z,96415.00
2024-02-02T00:22:18.630Z,96412.00
2024-02-02T00:23:18.657Z,96412.00
2024-02-02T00:24:18.675Z,96412.00
2024-02-02T00:25:18.692Z,96412.00
2024-02-02T00:26:18.747Z,96409.00
2024-02-02T00:27:18.883Z,96411.00
2024-02-02T00:28:18.841Z,96410.00
2024-02-02T00:29:18.875Z,96412.00
2024-02-02T00:30:19.116Z,96410.00
2024-02-02T00:31:18.930Z,96412.00
2024-02-02T00:32:18.953Z,96413.00
2024-02-02T00:33:19.159Z,96413.00
2024-02-02T00:34:19.135Z,96418.00
2024-02-02T00:35:19.059Z,96418.00
2024-02-02T00:36:19.144Z,96420.00
2024-02-02T00:37:19.090Z,96421.00
2024-02-02T00:38:19.147Z,96425.00
2024-02-02T00:39:19.167Z,96429.00
2024-02-02T00:40:21.087Z,96433.00
2024-02-02T00:41:19.196Z,96436.00
2024-02-02T00:42:19.230Z,96435.00
2024-02-02T00:43:20.031Z,96438.00
2024-02-02T00:44:19.239Z,96439.00
2024-02-02T00:45:19.413Z,96441.00
2024-02-02T00:46:19.296Z,96441.00
2024-02-02T00:47:19.300Z,96443.00
2024-02-02T00:48:19.536Z,96441.00
2024-02-02T00:49:19.391Z,96441.00
2024-02-02T00:50:19.343Z,96439.00
2024-02-02T00:51:19.341Z,96436.00
2024-02-02T00:52:19.342Z,96440.00
2024-02-02T00:53:19.364Z,96438.00
2024-02-02T00:54:19.365Z,96438.00
2024-02-02T00:55:19.393Z,96438.00
2024-02-02T00:56:19.443Z,96439.00
2024-02-02T00:57:19.493Z,96438.00
2024-02-02T00:58:19.384Z,96443.00
2024-02-02T00:59:19.410Z,96445.00
2024-02-02T01:00:19.474Z,96449.00
2024-02-02T01:01:19.493Z,96447.00
2024-02-02T01:02:19.420Z,96447.00
2024-02-02T01:03:19.571Z,96442.00
2024-02-02T01:04:19.480Z,96440.00
2024-02-02T01:05:19.427Z,96439.00
2024-02-02T01:06:19.597Z,96437.00
2024-02-02T01:07:19.452Z,96438.00
2024-02-02T01:08:19.458Z,96441.00
2024-02-02T01:09:19.483Z,96441.00
2024-02-02T01:10:19.409Z,96441.00
2024-02-02T01:11:19.437Z,96442.00
2024-02-02T01:12:19.473Z,96442.00
2024-02-02T01:13:19.429Z,96443.00
2024-02-02T01:14:19.442Z,96445.00
2024-02-02T01:15:19.437Z,96446.00
2024-02-02T01:16:19.431Z,96447.00
2024-02-02T01:17:19.419Z,96448.00
2024-02-02T01:18:19.520Z,96452.00
2024-02-02T01:19:19.641Z,96453.00
2024-02-02T01:20:19.385Z,96454.00
2024-02-02T01:21:19.446Z,96451.00
2024-02-02T01:22:19.385Z,96448.00
2024-02-02T01:23:19.358Z,96448.00
2024-02-02T01:24:19.534Z,96447.00
2024-02-02T01:25:19.380Z,96449.00
2024-02-02T01:26:19.387Z,96448.00
2024-02-02T01:27:19.462Z,96447.00
2024-02-02T01:28:19.353Z,96448.00
2024-02-02T01:29:19.436Z,96451.00
2024-02-02T01:30:19.381Z,96452.00
2024-02-02T01:31:19.328Z,96454.00
2024-02-02T01:32:19.408Z,96454.00
2024-02-02T01:33:19.411Z,96457.00
2024-02-02T01:34:19.436Z,96458.00
2024-02-02T01:35:19.304Z,96456.00
2024-02-02T01:36:19.386Z,96456.00
2024-02-02T01:37:19.318Z,96457.00
2024-02-02T01:38:19.271Z,96457.00
2024-02-02T01:39:19.335Z,96455.00
2024-02-02T01:40:19.263Z,96454.00
2024-02-02T01:41:19.264Z,96456.00
2024-02-02T01:42:19.252Z,96454.00
2024-02-02T01:43:19.223Z,96452.00
2024-02-02T01:44:19.221Z,96450.00
2024-02-02T01:45:19.370Z,96454.00
2024-02-02T01:46:19.181Z,96456.00
2024-02-02T01:47:19.195Z,96458.00
2024-02-02T01:48:19.444Z,96461.00
2024-02-02T01:49:19.337Z,96464.00
2024-02-02T01:50:19.202Z,96466.00
2024-02-02T01:51:19.247Z,96467.00
2024-02-02T01:52:19.237Z,96467.00
2024-02-02T01:53:19.252Z,96466.00
2024-02-02T01:54:19.336Z,96466.00
2024-02-02T01:55:19.305Z,96469.00
2024-02-02T01:56:19.343Z,96467.00
2024-02-02T01:57:19.394Z,96466.00
2024-02-02T01:58:19.397Z,96467.00
2024-02-02T01:59:19.431Z,96467.00
2024-02-02T02:00:19.493Z,96466.00
2024-02-02T02:01:19.579Z,96463.00
2024-02-02T02:02:19.535Z,96464.00
2024-02-02T02:03:19.640Z,96466.00
2024-02-02T02:04:19.698Z,96469.00
2024-02-02T02:05:19.752Z,96464.00
2024-02-02T02:06:19.757Z,96468.00
2024-02-02T02:07:19.767Z,96467.00
2024-02-02T02:08:19.893Z,96464.00
2024-02-02T02:09:19.967Z,96461.00
2024-02-02T02:10:19.988Z,96460.00
2024-02-02T02:11:20.086Z,96462.00
2024-02-02T02:12:20.178Z,96460.00
2024-02-02T02:13:20.144Z,96461.00
2024-02-02T02:14:20.193Z,96458.00
2024-02-02T02:15:20.341Z,96456.00
2024-02-02T02:16:20.313Z,96459.00
2024-02-02T02:17:20.348Z,96457.00
2024-02-02T02:18:20.493Z,96456.00
2024-02-02T02:19:20.597Z,96452.00
2024-02-02T02:20:20.548Z,96448.00
2024-02-02T02:21:20.595Z,96448.00
2024-02-02T02:22:20.650Z,96446.00
2024-02-02T02:23:20.698Z,96447.00
2024-02-02T02:24:20.832Z,96449.00
2024-02-02T02:25:20.782Z,96447.00
2024-02-02T02:26:20.849Z,96446.00
2024-02-02T02:27:20.957Z,96440.00
2024-02-02T02:28:20.936Z,96436.00
2024-02-02T02:29:21.009Z,96434.00
2024-02-02T02:30:21.084Z,96437.00
2024-02-02T02:31:21.107Z,96435.00
2024-02-02T02:32:21.212Z,96437.00
2024-02-02T02:33:21.401Z,96435.00
2024-02-02T02:34:21.387Z,96433.00
2024-02-02T02:35:21.347Z,96435.00
2024-02-02T02:36:21.408Z,96436.00
2024-02-02T02:37:21.402Z,96433.00
2024-02-02T02:38:21.486Z,96435.00
2024-02-02T02:39:21.568Z,96434.00
2024-02-02T02:40:21.596Z,96436.00
2024-02-02T02:41:21.597Z,96433.00
2024-02-02T02:42:21.719Z,96435.00
2024-02-02T02:43:21.716Z,96432.00
2024-02-02T02:44:21.797Z,96433.00
2024-02-02T02:45:21.825Z,96432.00
2024-02-02T02:46:22.551Z,96430.00
2024-02-02T02:47:21.955Z,96432.00
2024-02-02T02:48:22.122Z,96432.00
2024-02-02T02:49:22.338Z,96431.00
2024-02-02T02:50:22.094Z,96430.00
2024-02-02T02:51:22.225Z,96429.00
2024-02-02T02:52:22.238Z,96425.00
2024-02-02T02:53:22.299Z,96423.00
2024-02-02T02:54:22.409Z,96424.00
2024-02-02T02:55:22.385Z,96425.00
2024-02-02T02:56:22.435Z,96425.00
2024-02-02T02:57:22.568Z,96423.00
2024-02-02T02:58:22.534Z,96423.00
2024-02-02T02:59:22.658Z,96421.00
2024-02-02T03:00:22.762Z,96419.00
2024-02-02T03:01:22.805Z,96419.00
2024-02-02T03:02:22.781Z,96417.00
2024-02-02T03:03:22.878Z,96414.00
2024-02-02T03:04:22.896Z,96415.00
2024-02-02T03:05:22.908Z,96416.00
2024-02-02T03:06:23.084Z,96414.00
2024-02-02T03:07:23.214Z,96418.00
2024-02-02T03:08:23.075Z,96416.00
2024-02-02T03:09:23.198Z,96414.00
2024-02-02T03:10:23.193Z,96417.00
2024-02-02T03:11:23.246Z,96418.00
2024-02-02T03:12:23.325Z,96422.00
2024-02-02T03:13:23.341Z,96422.00
2024-02-02T03:14:23.392Z,96422.00
2024-02-02T03:15:23.465Z,96423.00
2024-02-02T03:16:23.489Z,96423.00
2024-02-02T03:17:23.541Z,96424.00
2024-02-02T03:18:23.816Z,96424.00
2024-02-02T03:19:23.735Z,96425.00
2024-02-02T03:20:23.702Z,96426.00
2024-02-02T03:21:23.805Z,96426.00
2024-02-02T03:22:23.799Z,96427.00
2024-02-02T03:23:23.862Z,96429.00
2024-02-02T03:24:23.983Z,96430.00
2024-02-02T03:25:23.963Z,96433.00
2024-02-02T03:26:24.029Z,96432.00
2024-02-02T03:27:24.160Z,96434.00
2024-02-02T03:28:24.125Z,96436.00
2024-02-02T03:29:24.152Z,96437.00
2024-02-02T03:30:24.212Z,96437.00
2024-02-02T03:31:24.244Z,96435.00
2024-02-02T03:32:24.315Z,96437.00
2024-02-02T03:33:24.460Z,96436.00
2024-02-02T03:34:24.502Z,96440.00
2024-02-02T03:35:24.444Z,96439.00
2024-02-02T03:36:24.540Z,96438.00
2024-02-02T03:37:24.521Z,96439.00
2024-02-02T03:38:24.579Z,96442.00
2024-02-02T03:39:24.668Z,96440.00
2024-02-02T03:40:24.720Z,96442.00
2024-02-02T03:41:24.769Z,96442.00
2024-02-02T03:42:24.833Z,96441.00
2024-02-02T03:43:24.846Z,96439.00
2024-02-02T03:44:24.880Z,96443.00
2024-02-02T03:45:25.002Z,96442.00
2024-02-02T03:46:24.956Z,96442.00
2024-02-02T03:47:24.997Z,96446.00
2024-02-02T03:48:25.160Z,96446.00
2024-02-02T03:49:25.088Z,96445.00
2024-02-02T03:50:25.113Z,96450.00
2024-02-02T03:51:25.231Z,96449.00
2024-02-02T03:52:25.343Z,96451.00
2024-02-02T03:53:25.252Z,96451.00
2024-02-02T03:54:25.377Z,96452.00
2024-02-02T03:55:25.339Z,96452.00
2024-02-02T03:56:25.395Z,96451.00
2024-02-02T03:57:25.502Z,96452.00
2024-02-02T03:58:25.463Z,96454.00
2024-02-02T03:59:25.539Z,96454.00
2024-02-02T04:00:25.584Z,96455.00
2024-02-02T04:01:25.688Z,96456.00
2024-02-02T04:02:25.651Z,96456.00
2024-02-02T04:03:25.796Z,96455.00
2024-02-02T04:04:25.844Z,96453.00
2024-02-02T04:05:25.848Z,96456.00
2024-02-02T04:06:25.866Z,96454.00
2024-02-02T04:07:25.899Z,96453.00
2024-02-02T04:08:25.918Z,96453.00
2024-02-02T04:09:25.990Z,96455.00
2024-02-02T04:10:26.013Z,96453.00
2024-02-02T04:11:26.055Z,96455.00
2024-02-02T04:12:26.255Z,96456.00
2024-02-02T04:13:26.148Z,96457.00
2024-02-02T04:14:26.187Z,96458.00
2024-02-02T04:15:27.365Z,96456.00
2024-02-02T04:16:26.300Z,96456.00
2024-02-02T04:17:26.339Z,96454.00
2024-02-02T04:18:26.456Z,96458.00
2024-02-02T04:19:26.457Z,96460.00
2024-02-02T04:20:26.482Z,96460.00
2024-02-02T04:21:26.556Z,96461.00
2024-02-02T04:22:26.586Z,96458.00
2024-02-02T04:23:26.628Z,96460.00
2024-02-02T04:24:26.687Z,96462.00
2024-02-02T04:25:26.710Z,96458.00
2024-02-02T04:26:26.766Z,96463.00
2024-02-02T04:27:26.872Z,96462.00
2024-02-02T04:28:26.866Z,96460.00
2024-02-02T04:29:26.901Z,96458.00
2024-02-02T04:30:34.290Z,96455.00
2024-02-02T04:31:41.483Z,96455.00
2024-02-02T04:32:41.696Z,96454.00
2024-02-02T04:33:41.548Z,96455.00
2024-02-02T04:34:41.652Z,96453.00
2024-02-02T04:35:41.483Z,96456.00
2024-02-02T04:36:41.497Z,96455.00
2024-02-02T04:37:41.450Z,96455.00
2024-02-02T04:38:41.422Z,96454.00
2024-02-02T04:39:41.429Z,96452.00
2024-02-02T04:40:41.388Z,96454.00
2024-02-02T04:41:41.390Z,96456.00
2024-02-02T04:42:41.399Z,96458.00
2024-02-02T04:43:41.409Z,96457.00
2024-02-02T04:44:41.358Z,96457.00
2024-02-02T04:45:41.370Z,96459.00
2024-02-02T04:46:41.351Z,96458.00
2024-02-02T04:47:41.346Z,96457.00
2024-02-02T04:48:41.408Z,96457.00
2024-02-02T04:49:41.401Z,96453.00
2024-02-02T04:50:41.277Z,96454.00
2024-02-02T04:51:41.315Z,96450.00
2024-02-02T04:52:41.330Z,96452.00
2024-02-02T04:53:41.350Z,96452.00
2024-02-02T04:54:41.396Z,96451.00
2024-02-02T04:55:41.434Z,96452.00
2024-02-02T04:56:41.570Z,96453.00
2024-02-02T04:57:41.526Z,96455.00
2024-02-02T04:58:41.561Z,96453.00
2024-02-02T04:59:41.642Z,96453.00
2024-02-02T05:00:41.722Z,96452.00
2024-02-02T05:01:41.788Z,96450.00
2024-02-02T05:02:41.759Z,96446.00
2024-02-02T05:03:41.890Z,96447.00
2024-02-02T05:04:41.922Z,96446.00
2024-02-02T05:05:41.928Z,96448.00
2024-02-02T05:06:41.972Z,96449.00
2024-02-02T05:07:42.044Z,96451.00
2024-02-02T05:08:42.042Z,96452.00
2024-02-02T05:09:42.084Z,96453.00
2024-02-02T05:10:42.098Z,96454.00
2024-02-02T05:11:42.130Z,96450.00
2024-02-02T05:12:42.289Z,96452.00
2024-02-02T05:13:42.250Z,96452.00
2024-02-02T05:14:42.322Z,96453.00
2024-02-02T05:15:42.462Z,96452.00
2024-02-02T05:16:42.438Z,96453.00
2024-02-02T05:17:42.561Z,96454.00
2024-02-02T05:18:42.649Z,96454.00
2024-02-02T05:19:42.624Z,96457.00
2024-02-02T05:20:42.680Z,96458.00
2024-02-02T05:21:42.738Z,96459.00
2024-02-02T05:22:42.827Z,96463.00
2024-02-02T05:23:48.916Z,96461.00
2024-02-02T05:24:45.924Z,96466.00
2024-02-02T05:25:42.898Z,96468.00
2024-02-02T05:26:42.813Z,96468.00
2024-02-02T05:27:42.920Z,96470.00
2024-02-02T05:28:42.822Z,96470.00
2024-02-02T05:29:42.775Z,96470.00
2024-02-02T05:30:42.832Z,96472.00
2024-02-02T05:31:42.761Z,96473.00
2024-02-02T05:32:42.784Z,96472.00
2024-02-02T05:33:44.608Z,96470.00
2024-02-02T05:34:42.818Z,96473.00
2024-02-02T05:35:42.723Z,96476.00
2024-02-02T05:36:42.725Z,96478.00
2024-02-02T05:37:42.691Z,96480.00
2024-02-02T05:38:42.708Z,96484.00
2024-02-02T05:39:42.734Z,96485.00
2024-02-02T05:40:42.646Z,96488.00
2024-02-02T05:41:42.647Z,96488.00
2024-02-02T05:42:42.700Z,96492.00
2024-02-02T05:43:42.634Z,96497.00
2024-02-02T05:44:42.636Z,96497.00
2024-02-02T05:45:42.654Z,96497.00
2024-02-02T05:46:42.593Z,96500.00
2024-02-02T05:47:42.659Z,96502.00
2024-02-02T05:48:42.693Z,96501.00
2024-02-02T05:49:42.624Z,96501.00
2024-02-02T05:50:42.605Z,96502.00
2024-02-02T05:51:42.626Z,96502.00
2024-02-02T05:52:42.573Z,96503.00
2024-02-02T05:53:42.547Z,96505.00
2024-02-02T05:54:42.580Z,96508.00
2024-02-02T05:55:43.957Z,96511.00
2024-02-02T05:56:42.699Z,96510.00
2024-02-02T05:57:42.684Z,96511.00
2024-02-02T05:58:42.779Z,96515.00
2024-02-02T05:59:42.843Z,96510.00
2024-02-02T06:00:42.990Z,96514.00
2024-02-02T06:02:05.484Z,96517.00
2024-02-02T06:02:42.879Z,96518.00
2024-02-02T06:03:43.073Z,96518.00
2024-02-02T06:04:42.991Z,96517.00
2024-02-02T06:05:42.954Z,96516.00
2024-02-02T06:06:42.938Z,96517.00
2024-02-02T06:07:42.888Z,96517.00
2024-02-02T06:08:42.861Z,96517.00
2024-02-02T06:09:42.940Z,96519.00
2024-02-02T06:10:42.829Z,96523.00
2024-02-02T06:11:42.840Z,96524.00
2024-02-02T06:12:42.943Z,96526.00
2024-02-02T06:13:42.872Z,96526.00
2024-02-02T06:14:42.852Z,96533.00
2024-02-02T06:15:42.856Z,96536.00
2024-02-02T06:16:42.790Z,96536.00
2024-02-02T06:17:42.844Z,96539.00
2024-02-02T06:18:42.846Z,96538.00
2024-02-02T06:19:42.871Z,96542.00
2024-02-02T06:20:42.821Z,96548.00
2024-02-02T06:21:42.844Z,96551.00
2024-02-02T06:22:42.874Z,96556.00
2024-02-02T06:23:42.893Z,96553.00
2024-02-02T06:24:43.012Z,96555.00
2024-02-02T06:25:42.976Z,96557.00
2024-02-02T06:26:43.036Z,96555.00
2024-02-02T06:27:43.133Z,96558.00
2024-02-02T06:28:43.120Z,96560.00
2024-02-02T06:29:43.177Z,96560.00
2024-02-02T06:30:43.350Z,96564.00
2024-02-02T06:31:43.338Z,96567.00
2024-02-02T06:32:43.408Z,96570.00
2024-02-02T06:33:43.469Z,96570.00
2024-02-02T06:34:43.754Z,96571.00
2024-02-02T06:35:43.485Z,96572.00
2024-02-02T06:36:43.527Z,96573.00
2024-02-02T06:37:43.625Z,96575.00
2024-02-02T06:38:43.522Z,96575.00
2024-02-02T06:39:43.662Z,96577.00
2024-02-02T06:40:43.662Z,96576.00
2024-02-02T06:41:43.711Z,96576.00
2024-02-02T06:42:43.776Z,96575.00
2024-02-02T06:43:43.840Z,96576.00
2024-02-02T06:44:44.259Z,96577.00
2024-02-02T06:46:06.490Z,96579.00
2024-02-02T06:46:43.948Z,96577.00
2024-02-02T06:47:43.990Z,96577.00
2024-02-02T06:48:44.065Z,96573.00
2024-02-02T06:49:44.232Z,96573.00
2024-02-02T06:50:43.965Z,96568.00
2024-02-02T06:51:44.126Z,96571.00
2024-02-02T06:52:43.979Z,96573.00
2024-02-02T06:53:43.972Z,96572.00
2024-02-02T06:54:44.772Z,96576.00
2024-02-02T06:55:44.014Z,96576.00
2024-02-02T06:56:44.130Z,96577.00
2024-02-02T06:57:44.107Z,96579.00
2024-02-02T06:58:44.079Z,96577.00
2024-02-02T06:59:44.048Z,96578.00
2024-02-02T07:00:44.171Z,96579.00
2024-02-02T07:01:44.129Z,96580.00
2024-02-02T07:02:44.150Z,96579.00
2024-02-02T07:03:44.305Z,96580.00
2024-02-02T07:04:44.170Z,96579.00
2024-02-02T07:05:44.215Z,96581.00
2024-02-02T07:06:44.317Z,96583.00
2024-02-02T07:07:44.253Z,96587.00
2024-02-02T07:08:44.197Z,96588.00
2024-02-02T07:09:44.298Z,96584.00
2024-02-02T07:10:44.310Z,96584.00
2024-02-02T07:11:44.343Z,96581.00
2024-02-02T07:12:44.399Z,96579.00
2024-02-02T07:13:44.353Z,96580.00
2024-02-02T07:14:44.366Z,96576.00
2024-02-02T07:15:44.425Z,96576.00
2024-02-02T07:16:44.444Z,96576.00
2024-02-02T07:17:44.496Z,96578.00
2024-02-02T07:18:45.291Z,96582.00
2024-02-02T07:19:44.560Z,96583.00
2024-02-02T07:20:44.539Z,96582.00
2024-02-02T07:21:44.567Z,96581.00
2024-02-02T07:22:44.747Z,96580.00
2024-02-02T07:23:45.336Z,96580.00
2024-02-02T07:24:44.723Z,96584.00
2024-02-02T07:25:44.772Z,96583.00
2024-02-02T07:26:44.839Z,96587.00
2024-02-02T07:27:44.955Z,96586.00
2024-02-02T07:28:44.990Z,96587.00
2024-02-02T07:29:45.794Z,96588.00
2024-02-02T07:30:45.174Z,96590.00
2024-02-02T07:31:45.083Z,96592.00
2024-02-02T07:32:45.187Z,96593.00
2024-02-02T07:33:45.533Z,96592.00
2024-02-02T07:34:45.318Z,96589.00
2024-02-02T07:35:45.818Z,96592.00
2024-02-02T07:36:45.434Z,96590.00
2024-02-02T07:37:45.372Z,96587.00
2024-02-02T07:38:45.473Z,96587.00
2024-02-02T07:39:46.255Z,96584.00
2024-02-02T07:40:45.892Z,96590.00
2024-02-02T07:41:45.676Z,96590.00
2024-02-02T07:42:48.589Z,96589.00
2024-02-02T07:43:45.805Z,96592.00
2024-02-02T07:44:45.821Z,96593.00
2024-02-02T07:45:45.865Z,96594.00
2024-02-02T07:46:46.010Z,96594.00
2024-02-02T07:47:46.040Z,96593.00
2024-02-02T07:48:46.074Z,96596.00
2024-02-02T07:49:46.034Z,96598.00
2024-02-02T07:50:46.324Z,96599.00
2024-02-02T07:51:46.017Z,96601.00
2024-02-02T07:52:46.030Z,96598.00
2024-02-02T07:53:46.038Z,96600.00
2024-02-02T07:54:46.156Z,96602.00
2024-02-02T07:55:46.049Z,96604.00
2024-02-02T07:56:46.081Z,96604.00
2024-02-02T07:57:46.075Z,96602.00
2024-02-02T07:58:46.127Z,96599.00
2024-02-02T07:59:46.071Z,96600.00
2024-02-02T08:00:46.834Z,96599.00
2024-02-02T08:01:46.760Z,96602.00
2024-02-02T08:02:46.119Z,96603.00
2024-02-02T08:03:46.133Z,96604.00
2024-02-02T08:04:46.070Z,96604.00
2024-02-02T08:05:46.048Z,96606.00
2024-02-02T08:06:46.078Z,96605.00
2024-02-02T08:07:45.970Z,96606.00
2024-02-02T08:08:45.999Z,96607.00
2024-02-02T08:09:46.059Z,96607.00
2024-02-02T08:10:45.933Z,96611.00
2024-02-02T08:11:45.949Z,96616.00
2024-02-02T08:12:45.888Z,96620.00
2024-02-02T08:13:45.923Z,96624.00
2024-02-02T08:14:45.922Z,96624.00
2024-02-02T08:15:45.931Z,96625.00
2024-02-02T08:16:45.898Z,96625.00
2024-02-02T08:17:45.875Z,96626.00
2024-02-02T08:18:45.911Z,96624.00
2024-02-02T08:19:45.883Z,96624.00
2024-02-02T08:20:45.816Z,96622.00
2024-02-02T08:21:45.814Z,96620.00
2024-02-02T08:22:45.820Z,96621.00
2024-02-02T08:23:45.763Z,96624.00
2024-02-02T08:24:45.690Z,96625.00
2024-02-02T08:25:45.748Z,96625.00
2024-02-02T08:26:45.751Z,96628.00
2024-02-02T08:27:45.716Z,96629.00
2024-02-02T08:28:51.575Z,96629.00
2024-02-02T08:29:46.633Z,96628.00
2024-02-02T08:30:45.910Z,96626.00
2024-02-02T08:31:45.642Z,96625.00
2024-02-02T08:32:45.770Z,96627.00
2024-02-02T08:33:45.757Z,96626.00
2024-02-02T08:34:45.649Z,96625.00
2024-02-02T08:35:45.813Z,96624.00
2024-02-02T08:36:45.677Z,96628.00
2024-02-02T08:37:45.682Z,96621.00
2024-02-02T08:38:45.773Z,96621.00
2024-02-02T08:39:45.791Z,96622.00
2024-02-02T08:40:46.637Z,96625.00
2024-02-02T08:41:45.923Z,96624.00
2024-02-02T08:42:45.979Z,96626.00
2024-02-02T08:43:45.998Z,96632.00
2024-02-02T08:44:46.112Z,96630.00
2024-02-02T08:45:46.859Z,96627.00
2024-02-02T08:46:46.200Z,96627.00
2024-02-02T08:47:46.318Z,96623.00
2024-02-02T08:48:46.501Z,96622.00
2024-02-02T08:49:46.315Z,96616.00
2024-02-02T08:50:46.844Z,96617.00
2024-02-02T08:51:46.585Z,96618.00
2024-02-02T08:52:46.542Z,96619.00
2024-02-02T08:53:46.556Z,96621.00
2024-02-02T08:54:46.613Z,96622.00
2024-02-02T08:55:46.800Z,96621.00
2024-02-02T08:56:46.618Z,96620.00
2024-02-02T08:57:46.756Z,96621.00
2024-02-02T08:58:46.608Z,96619.00
2024-02-02T08:59:46.614Z,96619.00
2024-02-02T09:00:46.729Z,96614.00
2024-02-02T09:01:46.681Z,96611.00
2024-02-02T09:02:46.684Z,96608.00
2024-02-02T09:03:47.223Z,96603.00
2024-02-02T09:04:46.809Z,96601.00
2024-02-02T09:05:46.884Z,96600.00
2024-02-02T09:06:46.908Z,96604.00
2024-02-02T09:07:46.910Z,96597.00
2024-02-02T09:08:46.968Z,96597.00
2024-02-02T09:09:47.142Z,96600.00
2024-02-02T09:10:47.128Z,96599.00
2024-02-02T09:11:47.126Z,96598.00
2024-02-02T09:12:47.820Z,96598.00
2024-02-02T09:13:47.235Z,96600.00
2024-02-02T09:14:47.253Z,96601.00
2024-02-02T09:15:47.870Z,96604.00
2024-02-02T09:16:47.360Z,96601.00
2024-02-02T09:17:47.458Z,96600.00
2024-02-02T09:18:47.582Z,96597.00
2024-02-02T09:19:47.596Z,96596.00
2024-02-02T09:20:47.870Z,96593.00
2024-02-02T09:21:47.567Z,96596.00
2024-02-02T09:22:47.684Z,96591.00
2024-02-02T09:23:47.636Z,96594.00
2024-02-02T09:24:47.678Z,96593.00
2024-02-02T09:25:47.803Z,96593.00
2024-02-02T09:26:47.724Z,96594.00
2024-02-02T09:27:47.839Z,96596.00
2024-02-02T09:28:47.849Z,96596.00
2024-02-02T09:29:47.855Z,96592.00
2024-02-02T09:30:48.345Z,96591.00
2024-02-02T09:31:47.900Z,96589.00
2024-02-02T09:32:48.150Z,96581.00
2024-02-02T09:33:48.331Z,96581.00
2024-02-02T09:34:48.219Z,96582.00
2024-02-02T09:35:48.307Z,96580.00
2024-02-02T09:36:48.337Z,96580.00
2024-02-02T09:37:48.431Z,96577.00
2024-02-02T09:38:48.494Z,96573.00
2024-02-02T09:39:48.592Z,96572.00
2024-02-02T09:40:48.702Z,96568.00
2024-02-02T09:41:48.740Z,96570.00
2024-02-02T09:42:48.993Z,96568.00
2024-02-02T09:43:49.021Z,96571.00
2024-02-02T09:44:49.095Z,96571.00
2024-02-02T09:45:49.266Z,96572.00
2024-02-02T09:46:49.284Z,96577.00
2024-02-02T09:47:49.531Z,96576.00
2024-02-02T09:48:49.835Z,96576.00
2024-02-02T09:49:49.821Z,96575.00
2024-02-02T09:50:50.332Z,96573.00
2024-02-02T09:51:49.966Z,96575.00
2024-02-02T09:52:50.061Z,96575.00
2024-02-02T09:53:50.204Z,96577.00
2024-02-02T09:54:50.263Z,96575.00
2024-02-02T09:55:50.850Z,96574.00
2024-02-02T09:56:50.480Z,96575.00
2024-02-02T09:57:50.559Z,96577.00
2024-02-02T09:58:50.584Z,96576.00
2024-02-02T09:59:50.623Z,96577.00
2024-02-02T10:00:50.831Z,96575.00
2024-02-02T10:01:50.833Z,96577.00
2024-02-02T10:02:50.905Z,96574.00
2024-02-02T10:03:51.092Z,96576.00
2024-02-02T10:04:51.052Z,96576.00
2024-02-02T10:05:51.070Z,96576.00
2024-02-02T10:06:51.109Z,96580.00
2024-02-02T10:07:51.093Z,96580.00
2024-02-02T10:08:51.088Z,96580.00
2024-02-02T10:09:51.162Z,96580.00
2024-02-02T10:10:51.208Z,96584.00
2024-02-02T10:11:51.301Z,96584.00
2024-02-02T10:12:51.309Z,96584.00
2024-02-02T10:13:51.384Z,96579.00
2024-02-02T10:14:51.433Z,96579.00
2024-02-02T10:15:51.533Z,96580.00
2024-02-02T10:16:51.545Z,96580.00
2024-02-02T10:17:51.721Z,96581.00
2024-02-02T10:18:52.029Z,96584.00
2024-02-02T10:19:51.734Z,96584.00
2024-02-02T10:20:51.754Z,96586.00
2024-02-02T10:21:51.753Z,96590.00
2024-02-02T10:22:51.871Z,96589.00
2024-02-02T10:23:51.808Z,96589.00
2024-02-02T10:24:51.902Z,96589.00
2024-02-02T10:25:51.875Z,96591.00
2024-02-02T10:26:52.341Z,96594.00
2024-02-02T10:27:54.174Z,96596.00
2024-02-02T10:28:51.895Z,96595.00
2024-02-02T10:29:51.895Z,96589.00
2024-02-02T10:30:52.399Z,96590.00
2024-02-02T10:31:51.930Z,96590.00
2024-02-02T10:32:51.959Z,96585.00
2024-02-02T10:33:51.939Z,96585.00
2024-02-02T10:34:51.986Z,96585.00
2024-02-02T10:35:51.886Z,96584.00
2024-02-02T10:36:52.826Z,96584.00
2024-02-02T10:37:51.870Z,96586.00
2024-02-02T10:38:52.036Z,96584.00
2024-02-02T10:39:51.964Z,96580.00
2024-02-02T10:40:51.914Z,96579.00
2024-02-02T10:41:52.550Z,96577.00
2024-02-02T10:42:52.848Z,96572.00
2024-02-02T10:43:52.137Z,96569.00
2024-02-02T10:44:52.113Z,96574.00
2024-02-02T10:45:52.162Z,96576.00
2024-02-02T10:46:52.858Z,96573.00
2024-02-02T10:47:52.423Z,96573.00
2024-02-02T10:48:52.588Z,96571.00
2024-02-02T10:49:52.586Z,96571.00
2024-02-02T10:50:52.598Z,96569.00
2024-02-02T10:51:52.892Z,96566.00
2024-02-02T10:52:52.634Z,96566.00
2024-02-02T10:53:52.688Z,96564.00
2024-02-02T10:54:52.754Z,96562.00
2024-02-02T10:55:52.753Z,96554.00
2024-02-02T10:56:52.807Z,96557.00
2024-02-02T10:57:52.887Z,96558.00
2024-02-02T10:58:52.904Z,96557.00
2024-02-02T10:59:52.935Z,96551.00
2024-02-02T11:00:53.053Z,96552.00
2024-02-02T11:01:53.344Z,96544.00
2024-02-02T11:02:53.040Z,96542.00
2024-02-02T11:03:53.050Z,96541.00
2024-02-02T11:04:53.110Z,96538.00
2024-02-02T11:05:53.054Z,96535.00
2024-02-02T11:06:53.143Z,96531.00
2024-02-02T11:07:53.847Z,96531.00
2024-02-02T11:08:53.140Z,96528.00
2024-02-02T11:09:53.103Z,96526.00
2024-02-02T11:10:53.861Z,96520.00
2024-02-02T11:11:53.109Z,96516.00
2024-02-02T11:12:53.163Z,96520.00
2024-02-02T11:13:53.207Z,96519.00
2024-02-02T11:14:53.787Z,96512.00
2024-02-02T11:15:53.351Z,96510.00
2024-02-02T11:16:53.357Z,96507.00
2024-02-02T11:17:53.411Z,96506.00
2024-02-02T11:18:53.551Z,96510.00
2024-02-02T11:19:53.572Z,96515.00
2024-02-02T11:20:53.492Z,96513.00
2024-02-02T11:21:53.912Z,96509.00
2024-02-02T11:22:53.428Z,96499.00
2024-02-02T11:23:53.532Z,96492.00
2024-02-02T11:24:53.657Z,96484.00
2024-02-02T11:25:54.400Z,96484.00
2024-02-02T11:26:53.516Z,96485.00
2024-02-02T11:27:55.376Z,96489.00
2024-02-02T11:28:53.649Z,96493.00
2024-02-02T11:29:53.513Z,96493.00
2024-02-02T11:30:53.590Z,96493.00
2024-02-02T11:31:53.886Z,96490.00
2024-02-02T11:32:54.457Z,96488.00
2024-02-02T11:33:54.477Z,96485.00
2024-02-02T11:34:53.678Z,96483.00
2024-02-02T11:35:53.738Z,96480.00
2024-02-02T11:36:54.351Z,96484.00
2024-02-02T11:37:53.806Z,96487.00
2024-02-02T11:38:53.748Z,96491.00
2024-02-02T11:39:53.720Z,96492.00
2024-02-02T11:40:53.732Z,96490.00
2024-02-02T11:41:53.724Z,96494.00
2024-02-02T11:42:53.738Z,96493.00
2024-02-02T11:43:53.704Z,96494.00
2024-02-02T11:44:53.777Z,96495.00